sensor_id;sensor_type;location;lat;lon;timestamp;pressure;altitude;pressure_sealevel;temperature;humidity
48015;BME280;33780;51.034;7.120;2023-07-24T00:01:54;99806.56;;;20.56;76.39
48015;BME280;33780;51.034;7.120;2023-07-24T00:04:19;99798.84;;;20.52;75.86
48015;BME280;33780;51.034;7.120;2023-07-24T00:06:44;99796.34;;;20.51;76.37
48015;BME280;33780;51.034;7.120;2023-07-24T00:09:10;99791.97;;;20.50;76.26
48015;BME280;33780;51.034;7.120;2023-07-24T00:11:35;99795.50;;;20.50;75.98
48015;BME280;33780;51.034;7.120;2023-07-24T00:14:00;99793.63;;;20.51;76.09
48015;BME280;33780;51.034;7.120;2023-07-24T00:16:25;99796.34;;;20.51;76.11
48015;BME280;33780;51.034;7.120;2023-07-24T00:18:51;99805.56;;;20.50;75.87
48015;BME280;33780;51.034;7.120;2023-07-24T00:21:16;99799.06;;;20.51;75.55
48015;BME280;33780;51.034;7.120;2023-07-24T00:23:41;99790.06;;;20.50;75.80
48015;BME280;33780;51.034;7.120;2023-07-24T00:26:06;99790.91;;;20.51;75.55
48015;BME280;33780;51.034;7.120;2023-07-24T00:28:32;99787.34;;;20.50;75.96
48015;BME280;33780;51.034;7.120;2023-07-24T00:30:58;99784.03;;;20.48;75.90
48015;BME280;33780;51.034;7.120;2023-07-24T00:33:23;99789.88;;;20.45;76.02
48015;BME280;33780;51.034;7.120;2023-07-24T00:35:48;99785.50;;;20.44;76.05
48015;BME280;33780;51.034;7.120;2023-07-24T00:38:13;99786.53;;;20.43;75.95
48015;BME280;33780;51.034;7.120;2023-07-24T00:40:39;99785.72;;;20.43;76.01
48015;BME280;33780;51.034;7.120;2023-07-24T00:43:04;99779.66;;;20.41;75.89
48015;BME280;33780;51.034;7.120;2023-07-24T00:45:29;99778.19;;;20.38;75.74
48015;BME280;33780;51.034;7.120;2023-07-24T00:47:55;99777.59;;;20.36;75.67
48015;BME280;33780;51.034;7.120;2023-07-24T00:50:21;99780.53;;;20.35;75.49
48015;BME280;33780;51.034;7.120;2023-07-24T00:52:46;99776.34;;;20.32;75.77
48015;BME280;33780;51.034;7.120;2023-07-24T00:55:13;99777.41;;;20.31;75.67
48015;BME280;33780;51.034;7.120;2023-07-24T00:57:39;99772.38;;;20.28;75.76
48015;BME280;33780;51.034;7.120;2023-07-24T01:00:06;99767.16;;;20.27;76.00
48015;BME280;33780;51.034;7.120;2023-07-24T01:02:31;99763.00;;;20.24;75.88
48015;BME280;33780;51.034;7.120;2023-07-24T01:04:57;99760.28;;;20.24;76.22
48015;BME280;33780;51.034;7.120;2023-07-24T01:07:22;99756.13;;;20.21;76.03
48015;BME280;33780;51.034;7.120;2023-07-24T01:09:47;99753.41;;;20.21;76.39
48015;BME280;33780;51.034;7.120;2023-07-24T01:12:27;99751.53;;;20.22;76.29
48015;BME280;33780;51.034;7.120;2023-07-24T01:15:10;99748.41;;;20.18;76.76
48015;BME280;33780;51.034;7.120;2023-07-24T01:17:42;99737.78;;;20.17;76.31
48015;BME280;33780;51.034;7.120;2023-07-24T01:20:11;99739.66;;;20.16;76.52
48015;BME280;33780;51.034;7.120;2023-07-24T01:22:54;99731.72;;;20.15;76.83
48015;BME280;33780;51.034;7.120;2023-07-24T01:25:32;99728.41;;;20.13;76.48
48015;BME280;33780;51.034;7.120;2023-07-24T01:28:00;99724.03;;;20.12;76.17
48015;BME280;33780;51.034;7.120;2023-07-24T01:30:26;99712.50;;;20.10;76.57
48015;BME280;33780;51.034;7.120;2023-07-24T01:32:51;99715.44;;;20.08;76.47
48015;BME280;33780;51.034;7.120;2023-07-24T01:35:17;99712.97;;;20.07;76.45
48015;BME280;33780;51.034;7.120;2023-07-24T01:37:43;99708.78;;;20.04;76.43
48015;BME280;33780;51.034;7.120;2023-07-24T01:40:09;99710.91;;;20.02;76.70
48015;BME280;33780;51.034;7.120;2023-07-24T01:42:36;99708.41;;;20.01;75.96
48015;BME280;33780;51.034;7.120;2023-07-24T01:45:03;99704.03;;;20.00;76.35
48015;BME280;33780;51.034;7.120;2023-07-24T01:47:28;99697.97;;;19.98;76.25
48015;BME280;33780;51.034;7.120;2023-07-24T01:49:55;99699.25;;;19.95;76.51
48015;BME280;33780;51.034;7.120;2023-07-24T01:52:20;99701.13;;;19.95;76.15
48015;BME280;33780;51.034;7.120;2023-07-24T01:54:45;99693.22;;;19.93;76.42
48015;BME280;33780;51.034;7.120;2023-07-24T01:57:10;99691.50;;;19.92;76.91
48015;BME280;33780;51.034;7.120;2023-07-24T01:59:36;99679.22;;;19.89;77.37
48015;BME280;33780;51.034;7.120;2023-07-24T02:02:01;99678.59;;;19.87;76.93
48015;BME280;33780;51.034;7.120;2023-07-24T02:04:26;99675.88;;;19.87;76.87
48015;BME280;33780;51.034;7.120;2023-07-24T02:06:51;99672.94;;;19.89;76.38
48015;BME280;33780;51.034;7.120;2023-07-24T02:09:20;99678.59;;;19.87;76.70
48015;BME280;33780;51.034;7.120;2023-07-24T02:11:46;99684.84;;;19.88;76.93
48015;BME280;33780;51.034;7.120;2023-07-24T02:14:12;99676.31;;;19.84;76.70
48015;BME280;33780;51.034;7.120;2023-07-24T02:16:38;99679.03;;;19.84;77.11
48015;BME280;33780;51.034;7.120;2023-07-24T02:19:03;99687.19;;;19.84;76.90
48015;BME280;33780;51.034;7.120;2023-07-24T02:21:29;99683.19;;;19.87;76.68
48015;BME280;33780;51.034;7.120;2023-07-24T02:23:54;99672.13;;;19.88;77.03
48015;BME280;33780;51.034;7.120;2023-07-24T02:26:19;99675.66;;;19.89;76.65
48015;BME280;33780;51.034;7.120;2023-07-24T02:28:45;99664.81;;;19.89;77.07
48015;BME280;33780;51.034;7.120;2023-07-24T02:31:11;99666.91;;;19.87;77.03
48015;BME280;33780;51.034;7.120;2023-07-24T02:33:36;99663.34;;;19.86;77.17
48015;BME280;33780;51.034;7.120;2023-07-24T02:36:02;99655.44;;;19.85;76.91
48015;BME280;33780;51.034;7.120;2023-07-24T02:38:27;99661.69;;;19.85;77.55
48015;BME280;33780;51.034;7.120;2023-07-24T02:40:53;99654.38;;;19.86;77.14
48015;BME280;33780;51.034;7.120;2023-07-24T02:43:18;99657.31;;;19.84;77.54
48015;BME280;33780;51.034;7.120;2023-07-24T02:45:43;99660.03;;;19.84;77.43
48015;BME280;33780;51.034;7.120;2023-07-24T02:48:08;99660.03;;;19.84;77.00
48015;BME280;33780;51.034;7.120;2023-07-24T02:50:34;99657.09;;;19.86;77.26
48015;BME280;33780;51.034;7.120;2023-07-24T02:52:59;99653.09;;;19.88;77.13
48015;BME280;33780;51.034;7.120;2023-07-24T02:55:25;99656.44;;;19.90;76.96
48015;BME280;33780;51.034;7.120;2023-07-24T02:57:50;99645.34;;;19.92;76.91
48015;BME280;33780;51.034;7.120;2023-07-24T03:00:16;99654.13;;;19.94;76.72
48015;BME280;33780;51.034;7.120;2023-07-24T03:02:41;99638.69;;;19.95;76.97
48015;BME280;33780;51.034;7.120;2023-07-24T03:05:07;99622.16;;;19.96;76.92
48015;BME280;33780;51.034;7.120;2023-07-24T03:07:32;99620.28;;;19.97;76.93
48015;BME280;33780;51.034;7.120;2023-07-24T03:09:58;99610.84;;;19.99;76.97
48015;BME280;33780;51.034;7.120;2023-07-24T03:12:23;99610.84;;;19.99;76.93
48015;BME280;33780;51.034;7.120;2023-07-24T03:14:48;99608.97;;;20.00;77.05
48015;BME280;33780;51.034;7.120;2023-07-24T03:17:14;99614.63;;;19.98;76.86
48015;BME280;33780;51.034;7.120;2023-07-24T03:19:40;99610.25;;;19.97;77.04
48015;BME280;33780;51.034;7.120;2023-07-24T03:22:06;99605.03;;;19.96;77.07
48015;BME280;33780;51.034;7.120;2023-07-24T03:24:31;99602.53;;;19.94;77.43
48015;BME280;33780;51.034;7.120;2023-07-24T03:26:57;99606.31;;;19.93;77.30
48015;BME280;33780;51.034;7.120;2023-07-24T03:29:22;99604.84;;;19.90;77.19
48015;BME280;33780;51.034;7.120;2023-07-24T03:31:47;99594.41;;;19.87;77.69
48015;BME280;33780;51.034;7.120;2023-07-24T03:34:13;99589.44;;;19.84;77.73
48015;BME280;33780;51.034;7.120;2023-07-24T03:36:38;99588.00;;;19.82;78.07
48015;BME280;33780;51.034;7.120;2023-07-24T03:39:06;99600.13;;;19.79;77.16
48015;BME280;33780;51.034;7.120;2023-07-24T03:41:32;99585.34;;;19.75;78.98
48015;BME280;33780;51.034;7.120;2023-07-24T03:43:57;99588.25;;;19.74;77.82
48015;BME280;33780;51.034;7.120;2023-07-24T03:46:22;99584.09;;;19.71;77.61
48015;BME280;33780;51.034;7.120;2023-07-24T03:48:47;99585.13;;;19.70;77.28
48015;BME280;33780;51.034;7.120;2023-07-24T03:51:15;99586.41;;;19.68;77.51
48015;BME280;33780;51.034;7.120;2023-07-24T03:53:40;99582.88;;;19.67;77.54
48015;BME280;33780;51.034;7.120;2023-07-24T03:56:05;99587.69;;;19.65;78.67
48015;BME280;33780;51.034;7.120;2023-07-24T03:58:30;99596.88;;;19.64;77.74
48015;BME280;33780;51.034;7.120;2023-07-24T04:00:56;99599.59;;;19.64;77.75
48015;BME280;33780;51.034;7.120;2023-07-24T04:03:21;99592.28;;;19.65;78.14
48015;BME280;33780;51.034;7.120;2023-07-24T04:05:46;99584.13;;;19.65;78.03
48015;BME280;33780;51.034;7.120;2023-07-24T04:08:11;99587.69;;;19.65;77.50
48015;BME280;33780;51.034;7.120;2023-07-24T04:10:37;99580.38;;;19.66;77.75
48015;BME280;33780;51.034;7.120;2023-07-24T04:13:02;99581.81;;;19.68;77.33
48015;BME280;33780;51.034;7.120;2023-07-24T04:15:27;99580.75;;;19.69;77.57
48015;BME280;33780;51.034;7.120;2023-07-24T04:17:52;99570.50;;;19.71;77.80
48015;BME280;33780;51.034;7.120;2023-07-24T04:20:18;99573.63;;;19.75;77.59
48015;BME280;33780;51.034;7.120;2023-07-24T04:22:43;99578.22;;;19.74;77.67
48015;BME280;33780;51.034;7.120;2023-07-24T04:25:08;99571.53;;;19.77;77.69
48015;BME280;33780;51.034;7.120;2023-07-24T04:27:34;99575.91;;;19.78;77.40
48015;BME280;33780;51.034;7.120;2023-07-24T04:29:59;99577.56;;;19.79;77.33
48015;BME280;33780;51.034;7.120;2023-07-24T04:32:26;99581.94;;;19.80;77.42
48015;BME280;33780;51.034;7.120;2023-07-24T04:34:52;99580.91;;;19.81;77.51
48015;BME280;33780;51.034;7.120;2023-07-24T04:37:18;99588.00;;;19.82;77.45
48015;BME280;33780;51.034;7.120;2023-07-24T04:39:44;99581.72;;;19.81;77.43
48015;BME280;33780;51.034;7.120;2023-07-24T04:42:09;99576.09;;;19.83;77.35
48015;BME280;33780;51.034;7.120;2023-07-24T04:44:35;99573.97;;;19.85;77.14
48015;BME280;33780;51.034;7.120;2023-07-24T04:47:00;99578.34;;;19.86;77.03
48015;BME280;33780;51.034;7.120;2023-07-24T04:49:31;99589.81;;;19.88;77.02
48015;BME280;33780;51.034;7.120;2023-07-24T04:52:02;99591.47;;;19.89;76.95
48015;BME280;33780;51.034;7.120;2023-07-24T04:54:30;99597.75;;;19.89;77.35
48015;BME280;33780;51.034;7.120;2023-07-24T04:56:56;99593.16;;;19.90;76.79
48015;BME280;33780;51.034;7.120;2023-07-24T04:59:21;99593.97;;;19.90;76.98
48015;BME280;33780;51.034;7.120;2023-07-24T05:01:46;99599.19;;;19.92;77.07
48015;BME280;33780;51.034;7.120;2023-07-24T05:04:12;99601.72;;;19.94;76.97
48015;BME280;33780;51.034;7.120;2023-07-24T05:06:37;99596.28;;;19.94;76.91
48015;BME280;33780;51.034;7.120;2023-07-24T05:09:03;99602.53;;;19.94;76.68
48015;BME280;33780;51.034;7.120;2023-07-24T05:11:29;99607.75;;;19.96;76.65
48015;BME280;33780;51.034;7.120;2023-07-24T05:13:54;99604.19;;;19.95;76.65
48015;BME280;33780;51.034;7.120;2023-07-24T05:16:19;99603.38;;;19.95;76.54
48015;BME280;33780;51.034;7.120;2023-07-24T05:18:44;99600.66;;;19.95;76.55
48015;BME280;33780;51.034;7.120;2023-07-24T05:21:10;99613.41;;;19.94;76.79
48015;BME280;33780;51.034;7.120;2023-07-24T05:23:35;99609.63;;;19.95;76.79
48015;BME280;33780;51.034;7.120;2023-07-24T05:26:02;99606.69;;;19.97;76.65
48015;BME280;33780;51.034;7.120;2023-07-24T05:28:28;99608.97;;;20.00;76.73
48015;BME280;33780;51.034;7.120;2023-07-24T05:30:54;99603.31;;;20.01;76.59
48015;BME280;33780;51.034;7.120;2023-07-24T05:33:19;99606.63;;;20.03;76.51
48015;BME280;33780;51.034;7.120;2023-07-24T05:35:45;99612.06;;;20.03;76.22
48015;BME280;33780;51.034;7.120;2023-07-24T05:38:10;99612.44;;;20.07;76.35
48015;BME280;33780;51.034;7.120;2023-07-24T05:40:35;99616.00;;;20.07;76.26
48015;BME280;33780;51.034;7.120;2023-07-24T05:43:00;99608.28;;;20.11;76.30
48015;BME280;33780;51.034;7.120;2023-07-24T05:45:29;99608.66;;;20.14;76.17
48015;BME280;33780;51.034;7.120;2023-07-24T05:47:54;99616.13;;;20.19;76.19
48015;BME280;33780;51.034;7.120;2023-07-24T05:50:20;99607.31;;;20.23;76.31
48015;BME280;33780;51.034;7.120;2023-07-24T05:52:45;99614.19;;;20.26;76.35
48015;BME280;33780;51.034;7.120;2023-07-24T05:55:10;99608.31;;;20.29;76.12
48015;BME280;33780;51.034;7.120;2023-07-24T05:57:36;99621.25;;;20.34;75.97
48015;BME280;33780;51.034;7.120;2023-07-24T06:00:03;99631.44;;;20.38;75.85
48015;BME280;33780;51.034;7.120;2023-07-24T06:02:29;99625.34;;;20.43;76.26
48015;BME280;33780;51.034;7.120;2023-07-24T06:04:54;99629.31;;;20.47;76.05
48015;BME280;33780;51.034;7.120;2023-07-24T06:07:19;99636.34;;;20.55;76.03
48015;BME280;33780;51.034;7.120;2023-07-24T06:09:44;99638.63;;;20.58;76.08
48015;BME280;33780;51.034;7.120;2023-07-24T06:12:10;99635.06;;;20.57;75.90
48015;BME280;33780;51.034;7.120;2023-07-24T06:14:35;99640.88;;;20.61;75.65
48015;BME280;33780;51.034;7.120;2023-07-24T06:17:00;99648.59;;;20.64;75.61
48015;BME280;33780;51.034;7.120;2023-07-24T06:19:25;99647.56;;;20.65;75.13
48015;BME280;33780;51.034;7.120;2023-07-24T06:21:51;99642.72;;;20.67;75.27
48015;BME280;33780;51.034;7.120;2023-07-24T06:24:16;99639.31;;;20.71;75.45
48015;BME280;33780;51.034;7.120;2023-07-24T06:26:41;99637.81;;;20.75;75.15
48015;BME280;33780;51.034;7.120;2023-07-24T06:29:06;99637.59;;;20.77;74.96
48015;BME280;33780;51.034;7.120;2023-07-24T06:31:32;99640.91;;;20.79;74.58
48015;BME280;33780;51.034;7.120;2023-07-24T06:33:57;99640.47;;;20.82;74.33
48015;BME280;33780;51.034;7.120;2023-07-24T06:36:22;99642.53;;;20.87;74.00
48015;BME280;33780;51.034;7.120;2023-07-24T06:38:48;99645.00;;;20.88;73.75
48015;BME280;33780;51.034;7.120;2023-07-24T06:41:16;99644.56;;;20.91;73.45
48015;BME280;33780;51.034;7.120;2023-07-24T06:43:42;99637.00;;;20.93;73.53
48015;BME280;33780;51.034;7.120;2023-07-24T06:46:07;99630.28;;;20.96;73.23
48015;BME280;33780;51.034;7.120;2023-07-24T06:48:33;99637.97;;;20.99;73.50
48015;BME280;33780;51.034;7.120;2023-07-24T06:50:58;99637.56;;;21.02;73.37
48015;BME280;33780;51.034;7.120;2023-07-24T06:53:23;99637.94;;;21.05;72.96
48015;BME280;33780;51.034;7.120;2023-07-24T06:55:49;99632.25;;;21.07;72.83
48015;BME280;33780;51.034;7.120;2023-07-24T06:58:14;99633.09;;;21.07;72.61
48015;BME280;33780;51.034;7.120;2023-07-24T07:00:39;99631.19;;;21.08;72.04
48015;BME280;33780;51.034;7.120;2023-07-24T07:03:04;99630.13;;;21.09;71.92
48015;BME280;33780;51.034;7.120;2023-07-24T07:05:31;99630.50;;;21.12;72.07
48015;BME280;33780;51.034;7.120;2023-07-24T07:07:57;99629.63;;;21.19;71.79
48015;BME280;33780;51.034;7.120;2023-07-24T07:10:22;99630.41;;;21.26;71.47
48015;BME280;33780;51.034;7.120;2023-07-24T07:12:47;99628.41;;;21.33;71.26
48015;BME280;33780;51.034;7.120;2023-07-24T07:15:13;99634.38;;;21.41;71.26
48015;BME280;33780;51.034;7.120;2023-07-24T07:17:38;99623.41;;;21.48;71.16
48015;BME280;33780;51.034;7.120;2023-07-24T07:20:04;99618.91;;;21.54;70.67
48015;BME280;33780;51.034;7.120;2023-07-24T07:22:30;99609.03;;;21.59;70.46
48015;BME280;33780;51.034;7.120;2023-07-24T07:24:55;99611.03;;;21.64;70.78
48015;BME280;33780;51.034;7.120;2023-07-24T07:27:21;99614.13;;;21.67;70.14
48015;BME280;33780;51.034;7.120;2023-07-24T07:29:47;99618.28;;;21.70;69.75
48015;BME280;33780;51.034;7.120;2023-07-24T07:32:12;99615.31;;;21.71;69.30
48015;BME280;33780;51.034;7.120;2023-07-24T07:34:37;99621.59;;;21.72;68.77
48015;BME280;33780;51.034;7.120;2023-07-24T07:37:04;99610.50;;;21.74;68.82
48015;BME280;33780;51.034;7.120;2023-07-24T07:39:30;99621.41;;;21.74;68.12
48015;BME280;33780;51.034;7.120;2023-07-24T07:41:55;99619.50;;;21.74;67.15
48015;BME280;33780;51.034;7.120;2023-07-24T07:44:21;99617.00;;;21.73;66.94
48015;BME280;33780;51.034;7.120;2023-07-24T07:46:46;99613.22;;;21.74;66.41
48015;BME280;33780;51.034;7.120;2023-07-24T07:49:11;99608.84;;;21.73;65.80
48015;BME280;33780;51.034;7.120;2023-07-24T07:51:36;99602.53;;;21.72;65.39
48015;BME280;33780;51.034;7.120;2023-07-24T07:54:02;99593.94;;;21.75;64.99
48015;BME280;33780;51.034;7.120;2023-07-24T07:56:28;99598.06;;;21.78;65.09
48015;BME280;33780;51.034;7.120;2023-07-24T07:58:53;99602.00;;;21.82;64.46
48015;BME280;33780;51.034;7.120;2023-07-24T08:01:19;99590.38;;;21.86;64.67
48015;BME280;33780;51.034;7.120;2023-07-24T08:03:44;99586.38;;;21.89;65.11
48015;BME280;33780;51.034;7.120;2023-07-24T08:06:10;99582.13;;;21.93;64.87
48015;BME280;33780;51.034;7.120;2023-07-24T08:08:35;99578.22;;;22.00;64.47
48015;BME280;33780;51.034;7.120;2023-07-24T08:11:04;99581.09;;;22.06;64.29
48015;BME280;33780;51.034;7.120;2023-07-24T08:13:30;99585.03;;;22.10;64.37
48015;BME280;33780;51.034;7.120;2023-07-24T08:15:55;99582.91;;;22.12;64.22
48015;BME280;33780;51.034;7.120;2023-07-24T08:18:21;99583.25;;;22.15;64.64
48015;BME280;33780;51.034;7.120;2023-07-24T08:20:46;99581.25;;;22.22;64.42
48015;BME280;33780;51.034;7.120;2023-07-24T08:23:11;99589.56;;;22.27;64.48
48015;BME280;33780;51.034;7.120;2023-07-24T08:25:36;99585.06;;;22.33;64.19
48015;BME280;33780;51.034;7.120;2023-07-24T08:28:02;99580.19;;;22.35;63.93
48015;BME280;33780;51.034;7.120;2023-07-24T08:30:27;99584.09;;;22.39;63.77
48015;BME280;33780;51.034;7.120;2023-07-24T08:32:53;99591.22;;;22.40;63.31
48015;BME280;33780;51.034;7.120;2023-07-24T08:35:19;99600.22;;;22.41;62.70
48015;BME280;33780;51.034;7.120;2023-07-24T08:37:44;99582.44;;;22.38;62.95
48015;BME280;33780;51.034;7.120;2023-07-24T08:40:10;99578.53;;;22.34;63.16
48015;BME280;33780;51.034;7.120;2023-07-24T08:42:38;99574.41;;;22.31;63.12
48015;BME280;33780;51.034;7.120;2023-07-24T08:45:05;99580.31;;;22.28;63.19
48015;BME280;33780;51.034;7.120;2023-07-24T08:47:30;99568.34;;;22.29;63.18
48015;BME280;33780;51.034;7.120;2023-07-24T08:49:57;99565.88;;;22.28;63.27
48015;BME280;33780;51.034;7.120;2023-07-24T08:52:23;99552.00;;;22.29;62.78
48015;BME280;33780;51.034;7.120;2023-07-24T08:54:49;99561.00;;;22.30;63.06
48015;BME280;33780;51.034;7.120;2023-07-24T08:57:15;99553.19;;;22.34;63.17
48015;BME280;33780;51.034;7.120;2023-07-24T08:59:40;99541.56;;;22.38;63.22
48015;BME280;33780;51.034;7.120;2023-07-24T09:02:06;99536.22;;;22.43;63.62
48015;BME280;33780;51.034;7.120;2023-07-24T09:04:31;99536.34;;;22.48;63.35
48015;BME280;33780;51.034;7.120;2023-07-24T09:06:57;99540.25;;;22.52;63.51
48015;BME280;33780;51.034;7.120;2023-07-24T09:09:30;99547.13;;;22.55;62.92
48015;BME280;33780;51.034;7.120;2023-07-24T09:11:56;99549.84;;;22.55;62.84
48015;BME280;33780;51.034;7.120;2023-07-24T09:14:24;99554.47;;;22.54;63.43
48015;BME280;33780;51.034;7.120;2023-07-24T09:17:01;99552.81;;;22.53;63.45
48015;BME280;33780;51.034;7.120;2023-07-24T09:19:26;99573.81;;;22.53;63.50
48015;BME280;33780;51.034;7.120;2023-07-24T09:24:16;99560.88;;;22.48;62.63
48015;BME280;33780;51.034;7.120;2023-07-24T09:26:52;99568.81;;;22.50;62.27
48015;BME280;33780;51.034;7.120;2023-07-24T09:29:18;99554.38;;;22.49;62.50
48015;BME280;33780;51.034;7.120;2023-07-24T09:31:45;99567.16;;;22.49;62.49
48015;BME280;33780;51.034;7.120;2023-07-24T09:34:15;99559.81;;;22.49;61.89
48015;BME280;33780;51.034;7.120;2023-07-24T09:36:40;99542.16;;;22.52;61.67
48015;BME280;33780;51.034;7.120;2023-07-24T09:39:06;99540.13;;;22.59;61.74
48015;BME280;33780;51.034;7.120;2023-07-24T09:41:35;99535.63;;;22.65;61.86
48015;BME280;33780;51.034;7.120;2023-07-24T09:44:00;99529.19;;;22.71;61.63
48015;BME280;33780;51.034;7.120;2023-07-24T09:46:26;99527.41;;;22.76;61.07
48015;BME280;33780;51.034;7.120;2023-07-24T09:48:53;99527.53;;;22.81;61.10
48015;BME280;33780;51.034;7.120;2023-07-24T09:51:20;99519.13;;;22.83;61.48
48015;BME280;33780;51.034;7.120;2023-07-24T09:53:58;99510.94;;;22.83;61.21
48015;BME280;33780;51.034;7.120;2023-07-24T09:56:26;99508.22;;;22.83;60.88
48015;BME280;33780;51.034;7.120;2023-07-24T09:58:52;99503.59;;;22.83;60.96
48015;BME280;33780;51.034;7.120;2023-07-24T10:01:21;99503.59;;;22.83;61.00
48015;BME280;33780;51.034;7.120;2023-07-24T10:03:47;99493.97;;;22.81;60.76
48015;BME280;33780;51.034;7.120;2023-07-24T10:06:15;99494.56;;;22.83;61.03
48015;BME280;33780;51.034;7.120;2023-07-24T10:08:41;99487.81;;;22.85;61.01
48015;BME280;33780;51.034;7.120;2023-07-24T10:11:07;99488.16;;;22.89;61.18
48015;BME280;33780;51.034;7.120;2023-07-24T10:13:33;99484.59;;;22.88;60.41
48015;BME280;33780;51.034;7.120;2023-07-24T10:16:02;99494.09;;;22.86;60.55
48015;BME280;33780;51.034;7.120;2023-07-24T10:18:30;99494.78;;;22.81;60.46
48015;BME280;33780;51.034;7.120;2023-07-24T10:21:05;99492.53;;;22.78;60.13
48015;BME280;33780;51.034;7.120;2023-07-24T10:23:34;99490.28;;;22.75;59.55
48015;BME280;33780;51.034;7.120;2023-07-24T10:26:04;99476.31;;;22.72;60.17
48015;BME280;33780;51.034;7.120;2023-07-24T10:28:32;99482.34;;;22.74;60.04
48015;BME280;33780;51.034;7.120;2023-07-24T10:30:57;99473.44;;;22.78;59.89
48015;BME280;33780;51.034;7.120;2023-07-24T10:33:23;99471.19;;;22.87;59.81
48015;BME280;33780;51.034;7.120;2023-07-24T10:36:05;99468.66;;;22.97;59.88
48015;BME280;33780;51.034;7.120;2023-07-24T10:38:37;99458.75;;;23.08;59.54
48015;BME280;33780;51.034;7.120;2023-07-24T10:41:04;99451.69;;;23.24;59.74
48015;BME280;33780;51.034;7.120;2023-07-24T10:43:48;99454.84;;;23.32;59.06
48015;BME280;33780;51.034;7.120;2023-07-24T10:46:15;99451.47;;;23.42;59.75
48015;BME280;33780;51.034;7.120;2023-07-24T10:48:48;99447.75;;;23.48;58.51
48015;BME280;33780;51.034;7.120;2023-07-24T10:51:14;99448.06;;;23.51;58.70
48015;BME280;33780;51.034;7.120;2023-07-24T10:53:47;99448.69;;;23.54;57.22
48015;BME280;33780;51.034;7.120;2023-07-24T10:56:14;99441.88;;;23.56;58.49
48015;BME280;33780;51.034;7.120;2023-07-24T10:58:39;99443.31;;;23.59;58.46
48015;BME280;33780;51.034;7.120;2023-07-24T11:01:06;99439.00;;;23.63;57.81
48015;BME280;33780;51.034;7.120;2023-07-24T11:03:31;99431.41;;;23.65;57.79
48015;BME280;33780;51.034;7.120;2023-07-24T11:05:58;99427.34;;;23.67;58.07
48015;BME280;33780;51.034;7.120;2023-07-24T11:08:23;99430.44;;;23.71;57.93
48015;BME280;33780;51.034;7.120;2023-07-24T11:10:51;99422.81;;;23.73;57.95
48015;BME280;33780;51.034;7.120;2023-07-24T11:13:17;99417.59;;;23.71;58.21
48015;BME280;33780;51.034;7.120;2023-07-24T11:15:43;99409.41;;;23.71;58.73
48015;BME280;33780;51.034;7.120;2023-07-24T11:18:09;99416.25;;;23.74;59.49
48015;BME280;33780;51.034;7.120;2023-07-24T11:20:44;99414.34;;;23.74;60.45
48015;BME280;33780;51.034;7.120;2023-07-24T11:23:10;99394.91;;;23.71;60.82
48015;BME280;33780;51.034;7.120;2023-07-24T11:25:36;99405.72;;;23.66;62.45
48015;BME280;33780;51.034;7.120;2023-07-24T11:28:05;99398.78;;;23.58;63.02
48015;BME280;33780;51.034;7.120;2023-07-24T11:30:30;99389.06;;;23.50;62.89
48015;BME280;33780;51.034;7.120;2023-07-24T11:32:57;99397.25;;;23.50;66.04
48015;BME280;33780;51.034;7.120;2023-07-24T11:35:25;99387.41;;;23.49;66.01
48015;BME280;33780;51.034;7.120;2023-07-24T11:37:51;99366.81;;;23.42;66.88
48015;BME280;33780;51.034;7.120;2023-07-24T11:40:16;99353.56;;;23.34;67.20
48015;BME280;33780;51.034;7.120;2023-07-24T11:42:46;99331.06;;;23.27;67.01
48015;BME280;33780;51.034;7.120;2023-07-24T11:45:12;99332.59;;;23.17;67.18
48015;BME280;33780;51.034;7.120;2023-07-24T11:47:55;99346.78;;;23.03;66.65
48015;BME280;33780;51.034;7.120;2023-07-24T11:50:22;99347.44;;;22.93;65.83
48015;BME280;33780;51.034;7.120;2023-07-24T11:52:49;99372.16;;;22.86;66.72
48015;BME280;33780;51.034;7.120;2023-07-24T11:55:17;99399.09;;;22.83;67.06
48015;BME280;33780;51.034;7.120;2023-07-24T11:57:42;99509.13;;;22.77;67.97
48015;BME280;33780;51.034;7.120;2023-07-24T12:00:19;99546.06;;;22.56;67.98
48015;BME280;33780;51.034;7.120;2023-07-24T12:02:45;99507.91;;;22.09;65.09
48015;BME280;33780;51.034;7.120;2023-07-24T12:05:10;99519.91;;;21.78;68.37
48015;BME280;33780;51.034;7.120;2023-07-24T12:07:36;99495.97;;;21.57;70.14
48015;BME280;33780;51.034;7.120;2023-07-24T12:10:03;99472.84;;;21.48;69.78
48015;BME280;33780;51.034;7.120;2023-07-24T12:12:46;99489.53;;;21.39;69.90
48015;BME280;33780;51.034;7.120;2023-07-24T12:15:12;99515.16;;;21.32;70.39
48015;BME280;33780;51.034;7.120;2023-07-24T12:17:37;99540.59;;;21.26;70.08
48015;BME280;33780;51.034;7.120;2023-07-24T12:20:04;99543.91;;;21.09;71.15
48015;BME280;33780;51.034;7.120;2023-07-24T12:22:31;99539.22;;;20.98;71.62
48015;BME280;33780;51.034;7.120;2023-07-24T12:24:56;99549.28;;;20.98;71.89
48015;BME280;33780;51.034;7.120;2023-07-24T12:27:22;99537.72;;;21.02;70.78
48015;BME280;33780;51.034;7.120;2023-07-24T12:29:47;99522.97;;;21.10;71.16
48015;BME280;33780;51.034;7.120;2023-07-24T12:32:13;99522.28;;;21.15;72.63
48015;BME280;33780;51.034;7.120;2023-07-24T12:34:38;99509.44;;;21.22;72.24
48015;BME280;33780;51.034;7.120;2023-07-24T12:37:03;99501.84;;;21.24;72.23
48015;BME280;33780;51.034;7.120;2023-07-24T12:39:29;99494.56;;;21.24;72.63
48015;BME280;33780;51.034;7.120;2023-07-24T12:41:54;99490.06;;;21.30;72.26
48015;BME280;33780;51.034;7.120;2023-07-24T12:44:19;99475.53;;;21.36;72.40
48015;BME280;33780;51.034;7.120;2023-07-24T12:46:44;99476.16;;;21.38;71.25
48015;BME280;33780;51.034;7.120;2023-07-24T12:49:10;99475.09;;;21.39;71.47
48015;BME280;33780;51.034;7.120;2023-07-24T12:51:35;99477.81;;;21.39;71.08
48015;BME280;33780;51.034;7.120;2023-07-24T12:54:00;99474.25;;;21.38;71.17
48015;BME280;33780;51.034;7.120;2023-07-24T12:56:26;99470.94;;;21.36;71.18
48015;BME280;33780;51.034;7.120;2023-07-24T12:58:51;99466.41;;;21.30;70.94